Bookmark and Share
Track history (hours):
 

Blue Star 1

Last reported at 2014-Apr-24 01:33 UTC. Time now 2014-Apr-24 02:08 UTC.
Position N 37°08' E 024°40'.

Length 176 m; draft 6.5 m.

Type: Passenger vessel. MMSI: 239710000.

NotesDate/timePositionNaut miles runAvg speedWind from/ knotsBaromVisibWave heightAir tempDewpointWater temp
2014-Apr-24 01:33N 37°08' E 024°40'1919.5
2014-Apr-24 00:33N 36°55' E 024°57'2019.6
2014-Apr-23 23:33N 36°40' E 025°14'1919.2
2014-Apr-23 22:33N 36°23' E 025°26'8 7.8
2014-Apr-23 21:33N 36°31' E 025°26'2222.2
2014-Apr-23 20:33N 36°38' E 025°52'2222.3
2014-Apr-23 19:33N 36°44' E 026°19'2019.9
2014-Apr-23 18:33N 36°49' E 026°43'1919.3
2014-Apr-23 17:33N 36°54' E 027°06'10 7.4
2014-Apr-23 16:15N 36°54' E 027°18'1316.3
2014-Apr-23 15:25N 36°41' E 027°21'1719.5
2014-Apr-23 14:33N 36°34' E 027°41'14 1.5
2014-Apr-23 05:30N 36°30' E 027°57'2425.2
2014-Apr-23 04:33N 36°37' E 027°29'2211.2
2014-Apr-23 02:33N 36°56' E 027°14'2222.0
2014-Apr-23 01:33N 36°50' E 026°47'2222.0
2014-Apr-23 00:33N 36°44' E 026°21'2222.0
2014-Apr-22 23:33N 36°38' E 025°54'2222.1
2014-Apr-22 22:33N 36°32' E 025°28'9 8.9
2014-Apr-22 21:32N 36°23' E 025°26'1717.3
2014-Apr-22 20:33N 36°29' E 025°06'2121.5
2014-Apr-22 19:34N 36°43' E 024°45'2221.9
2014-Apr-22 18:34N 36°59' E 024°28'4721.6
2014-Apr-22 16:22N 37°34' E 023°47'1821.7
2014-Apr-22 15:33N 37°50' E 023°37'7 6.6
2014-Apr-22 14:32N 37°56' E 023°38'0 0.0
2014-Apr-22 13:31N 37°56' E 023°38'0 0.0
2014-Apr-22 12:31N 37°56' E 023°38'0 0.0
2014-Apr-22 11:31N 37°56' E 023°38'0 0.0
2014-Apr-22 10:28N 37°56' E 023°38'0 0.0
2014-Apr-22 09:31N 37°56' E 023°38'0 0.0
2014-Apr-22 08:31N 37°56' E 023°38'0 0.0
2014-Apr-22 07:31N 37°56' E 023°38'0 0.0
2014-Apr-22 06:31N 37°56' E 023°38'0 0.0
2014-Apr-22 05:31N 37°56' E 023°38'9 9.0
2014-Apr-22 04:33N 37°48' E 023°41'6722.2
2014-Apr-22 01:33N 37°04' E 024°44'3325.2
2014-Apr-22 00:15N 36°42' E 025°13'1116.1
2014-Apr-21 23:33N 36°31' E 025°19'9 9.4
2014-Apr-21 22:33N 36°23' E 025°25'8 8.1
2014-Apr-21 21:33N 36°31' E 025°25'2222.4
2014-Apr-21 20:33N 36°38' E 025°52'2322.5
2014-Apr-21 19:33N 36°44' E 026°19'2019.5
2014-Apr-21 18:33N 36°49' E 026°43'1919.4
2014-Apr-21 17:33N 36°54' E 027°06'19 9.1
2014-Apr-21 15:29N 36°40' E 027°22'1819.3
2014-Apr-21 14:33N 36°33' E 027°43'69 4.9
2014-Apr-21 00:32N 36°44' E 026°17'2121.6
2014-Apr-20 23:33N 36°38' E 025°52'2221.9
2014-Apr-20 22:33N 36°32' E 025°26'6 6.5
2014-Apr-20 21:33N 36°25' E 025°24'2222.1
2014-Apr-20 20:33N 36°44' E 025°10'2221.5
2014-Apr-20 19:33N 36°59' E 024°50'1919.3
2014-Apr-20 18:33N 37°12' E 024°33'1919.2
2014-Apr-20 17:33N 37°22' E 024°12'2519.2
2014-Apr-20 16:16N 37°37' E 023°47'1319.1
2014-Apr-20 15:33N 37°48' E 023°38'8 8.0
2014-Apr-20 14:31N 37°56' E 023°38'0 0.0
2014-Apr-20 13:28N 37°56' E 023°38'0 0.0
2014-Apr-20 12:31N 37°56' E 023°38'0 0.0
2014-Apr-20 11:31N 37°56' E 023°38'0 0.0
2014-Apr-20 10:31N 37°56' E 023°38'0 0.0
2014-Apr-20 09:31N 37°56' E 023°38'0 0.0
2014-Apr-20 08:31N 37°56' E 023°38'0 0.0
2014-Apr-20 07:31N 37°56' E 023°38'0 0.0
2014-Apr-20 06:28N 37°56' E 023°38'0 0.0
2014-Apr-20 05:31N 37°56' E 023°38'0 0.0
2014-Apr-20 04:28N 37°56' E 023°38'0 0.0
2014-Apr-20 03:31N 37°56' E 023°38'0 0.0
2014-Apr-20 02:31N 37°56' E 023°38'0 0.0
2014-Apr-20 01:34N 37°56' E 023°38'0 0.0
2014-Apr-20 00:34N 37°56' E 023°38'0 0.0
2014-Apr-19 23:33N 37°56' E 023°38'0 0.0
2014-Apr-19 22:33N 37°56' E 023°38'0 0.0
2014-Apr-19 21:33N 37°56' E 023°38'0 0.0
2014-Apr-19 20:33N 37°56' E 023°38'0 0.0
2014-Apr-19 19:33N 37°56' E 023°38'0 0.0
2014-Apr-19 18:33N 37°56' E 023°38'0 0.0
2014-Apr-19 17:27N 37°56' E 023°38'0 0.0
2014-Apr-19 16:33N 37°56' E 023°38'0 0.0
2014-Apr-19 15:33N 37°56' E 023°38'0 0.0
2014-Apr-19 14:33N 37°56' E 023°38'0 0.0
2014-Apr-19 13:21N 37°56' E 023°38'0 0.1
2014-Apr-19 12:33N 37°56' E 023°38'0 0.0
2014-Apr-19 11:23N 37°56' E 023°38'0 0.0
2014-Apr-19 10:23N 37°56' E 023°38'0 0.0
2014-Apr-19 09:22N 37°56' E 023°38'0 0.0
2014-Apr-19 08:28N 37°56' E 023°38'0 0.0
2014-Apr-19 07:16N 37°56' E 023°38'0 0.0
2014-Apr-19 06:04N 37°56' E 023°38'0 0.0
2014-Apr-19 05:28N 37°56' E 023°38'9 9.9
2014-Apr-19 04:33N 37°48' E 023°41'4820.7
2014-Apr-19 02:14N 37°15' E 024°26'1418.9
2014-Apr-19 01:29N 37°08' E 024°41'1819.0
2014-Apr-19 00:33N 36°56' E 024°57'2019.3
2014-Apr-18 23:30N 36°41' E 025°14'1819.3
2014-Apr-18 22:33N 36°25' E 025°25'5 4.6
2014-Apr-18 21:33N 36°29' E 025°22'2120.9
2014-Apr-18 20:33N 36°36' E 025°46'2221.6
2014-Apr-18 19:33N 36°42' E 026°12'3 0.2
2014-Apr-18 00:33N 36°41' E 026°09'2222.2
2014-Apr-17 23:33N 36°35' E 025°42'1717.5
2014-Apr-17 22:33N 36°25' E 025°24'2 1.9
2014-Apr-17 21:33N 36°24' E 025°26'2121.3
2014-Apr-17 20:33N 36°42' E 025°12'2221.7
2014-Apr-17 19:33N 36°56' E 024°52'2321.8
2014-Apr-17 18:31N 37°12' E 024°32'2121.6
2014-Apr-17 17:33N 37°23' E 024°10'2421.6
2014-Apr-17 16:25N 37°37' E 023°45'1821.3
2014-Apr-17 15:33N 37°55' E 023°37'2 1.7
2014-Apr-17 14:33N 37°56' E 023°38'0 0.0
2014-Apr-17 13:33N 37°56' E 023°38'0 0.0
2014-Apr-17 12:33N 37°56' E 023°38'0 0.0
2014-Apr-17 11:30N 37°56' E 023°38'0 0.0
2014-Apr-17 10:33N 37°56' E 023°38'0 0.0
2014-Apr-17 09:33N 37°56' E 023°38'0 0.0
2014-Apr-17 08:32N 37°56' E 023°38'0 0.0
2014-Apr-17 07:33N 37°56' E 023°38'0 0.0
2014-Apr-17 06:32N 37°56' E 023°38'0 0.0
2014-Apr-17 05:32N 37°56' E 023°38'9 8.8
2014-Apr-17 04:33N 37°48' E 023°41'2621.2
2014-Apr-17 03:20N 37°29' E 024°03'1619.7
2014-Apr-17 02:32N 37°19' E 024°18'1818.9
2014-Apr-17 01:34N 37°09' E 024°38'2019.6
2014-Apr-17 00:34N 36°56' E 024°56'1919.5
2014-Apr-16 23:34N 36°42' E 025°12'2019.5
2014-Apr-16 22:33N 36°25' E 025°25'5 4.6
2014-Apr-16 21:34N 36°29' E 025°22'2221.5
2014-Apr-16 20:33N 36°36' E 025°47'2221.9
2014-Apr-16 19:33N 36°43' E 026°13'5 0.3
2014-Apr-16 00:29N 36°44' E 026°19'2222.9
2014-Apr-15 23:33N 36°38' E 025°53'2322.6
2014-Apr-15 22:33N 36°31' E 025°26'8 7.9
2014-Apr-15 21:32N 36°23' E 025°26'1818.1
2014-Apr-15 20:31N 36°39' E 025°14'2221.7
2014-Apr-15 19:31N 36°55' E 024°56'2222.0
2014-Apr-15 18:31N 37°10' E 024°36'2221.7
2014-Apr-15 17:31N 37°22' E 024°13'4220.9
2014-Apr-15 15:31N 37°53' E 023°37'4 4.0
2014-Apr-15 14:33N 37°56' E 023°38'0 0.0
2014-Apr-15 12:33N 37°56' E 023°38'0 0.0
2014-Apr-15 11:33N 37°56' E 023°38'0 0.0
2014-Apr-15 10:33N 37°56' E 023°38'0 0.0
2014-Apr-15 09:33N 37°56' E 023°38'0 0.0
2014-Apr-15 08:33N 37°56' E 023°38'0 0.0
2014-Apr-15 07:33N 37°56' E 023°38'4 1.1
2014-Apr-15 03:33N 37°52' E 023°38'4522.4
2014-Apr-15 01:33N 37°16' E 024°13'2121.3
2014-Apr-15 00:33N 36°60' E 024°29'1919.5
2014-Apr-14 23:34N 36°45' E 024°44'1919.4
2014-Apr-14 22:34N 36°32' E 025°02'1919.2
2014-Apr-14 21:33N 36°23' E 025°24'4 3.6
2014-Apr-14 20:34N 36°27' E 025°22'2019.9
2014-Apr-14 19:34N 36°36' E 025°45'2222.3
2014-Apr-14 18:34N 36°42' E 026°11'  

Dump ship's entire track history

sailing weather and tide predictions

Blue Star 1 — SWET — position and weather